Terminal Aerodrome Forecast
Issued by NWS

Home | Current Version | Previous Version | Graphics & Text | Print | Product List | Glossary On
Versions: 1 2 3 4 5 6 7 8 9 10 11 12 13 14
000
FTUS43 KBIS 280500
TAFDIK
TAF
KDIK 280520Z 2806/0106 17010KT P6SM SCT250
     FM280900 27007KT P6SM SCT040
     FM281600 30013KT P6SM SCT025 BKN050=

USA.gov is the U.S. government's official web portal to all federal, state and local government web resources and services.